EDDC/DRS METAR and TAF weather

Enter ICAO airport designator
Station Type Date Time Source
EDDC METAR 2021/05/12 04:50 UTC NOAA

EDDC 120450Z 27005KT 240V310 9999 BKN008 BKN025 13/12 Q1008 TEMPO BKN010


Station Type Date Time Source
EDDC Decoded METAR 2021/05/12 04:50 UTC NOAA

Dresden-Klotzsche, Germany (EDDC) 51-08N 013-45E 232M
May 12, 2021 - 12:50 AM EDT / 2021.05.12 0450 UTC
Wind: from the W (270 degrees) at 6 MPH (5 KT) (direction variable):0
Visibility: greater than 7 mile(s):0
Sky conditions: mostly cloudy
Temperature: 55 F (13 C)
Dew Point: 53 F (12 C)
Relative Humidity: 93%
Pressure (altimeter): 29.77 in. Hg (1008 hPa)
ob: EDDC 120450Z 27005KT 240V310 9999 BKN008 BKN025 13/12 Q1008 TEMPO BKN010
cycle: 5

Station Type Date Time Source
EDDC TAF 2021/05/11 18:27 UTC NOAA

TAF EDDC 111700Z 1118/1218 29010KT CAVOK PROB30
TEMPO 1118/1123 31015G25KT TSRA BKN014CB
BECMG 1120/1123 BKN012
TEMPO 1122/1206 4000 -DZ BR BKN006
TEMPO 1211/1218 3500 RADZ BKN005

Example: see airport list